Time;durP1;ratioP1;P1;durP2;ratioP2;P2;SDS_P1;SDS_P2;PMS_P1;PMS_P2;Temp;Humidity;BMP_temperature;BMP_pressure;BME280_temperature;BME280_humidity;BME280_pressure;Samples;Min_cycle;Max_cycle;Signal;HPM_P1;HPM_P2
2021/10/16 00:00:29;;;;;;;9.45;7.03;;;7.90;99.90;;;;;;5052772;28;20021;-70
2021/10/16 00:02:54;;;;;;;11.50;7.70;;;7.90;99.90;;;;;;5052975;28;20091;-72
2021/10/16 00:05:20;;;;;;;13.68;8.45;;;7.90;99.90;;;;;;5052531;28;20033;-71
2021/10/16 00:07:46;;;;;;;12.55;8.52;;;7.90;99.90;;;;;;5050982;28;20103;-72
2021/10/16 00:10:11;;;;;;;11.60;8.95;;;7.90;99.90;;;;;;5052911;28;20059;-72
2021/10/16 00:12:37;;;;;;;13.07;8.57;;;7.80;99.90;;;;;;5052094;28;20017;-72
2021/10/16 00:15:04;;;;;;;12.45;7.88;;;7.70;99.90;;;;;;5051680;28;20033;-72
2021/10/16 00:17:30;;;;;;;12.30;8.10;;;7.60;99.90;;;;;;5051801;28;20075;-72
2021/10/16 00:19:55;;;;;;;13.35;7.55;;;7.60;99.90;;;;;;5058313;28;20051;-70
2021/10/16 00:22:21;;;;;;;10.05;7.30;;;7.50;99.90;;;;;;5072386;28;20085;-71
2021/10/16 00:24:48;;;;;;;10.68;7.65;;;7.40;99.90;;;;;;5071363;28;20113;-70
2021/10/16 00:27:15;;;;;;;10.48;7.80;;;7.30;99.90;;;;;;5072203;28;20063;-70
2021/10/16 00:29:41;;;;;;;11.45;8.32;;;7.20;99.90;;;;;;5071862;28;20024;-69
2021/10/16 00:32:06;;;;;;;11.13;7.78;;;7.20;99.90;;;;;;5041248;28;20415;-69
2021/10/16 00:34:32;;;;;;;11.85;7.90;;;7.10;99.90;;;;;;5032350;28;20114;-69
2021/10/16 00:36:57;;;;;;;11.55;8.60;;;7.10;99.90;;;;;;5030956;28;20032;-69
2021/10/16 00:39:23;;;;;;;12.35;9.15;;;7.00;99.90;;;;;;5002366;28;21049;-69
2021/10/16 00:41:49;;;;;;;14.38;8.75;;;7.00;99.90;;;;;;5029187;28;20071;-70
2021/10/16 00:44:24;;;;;;;13.13;8.43;;;7.00;99.90;;;;;;5044892;28;20110;-69
2021/10/16 00:46:52;;;;;;;12.60;8.30;;;6.90;99.90;;;;;;5052174;28;20036;-70
2021/10/16 00:49:18;;;;;;;12.32;8.02;;;6.80;99.90;;;;;;5050988;28;20033;-70
2021/10/16 00:51:44;;;;;;;11.88;7.93;;;6.80;99.90;;;;;;5050945;28;20484;-70
2021/10/16 00:54:11;;;;;;;11.77;8.25;;;6.80;99.90;;;;;;5051955;28;20025;-70
2021/10/16 00:56:42;;;;;;;12.48;8.70;;;6.80;99.90;;;;;;5032660;28;20037;-70
2021/10/16 00:59:09;;;;;;;11.30;8.20;;;6.70;99.90;;;;;;5036240;28;20029;-70
2021/10/16 01:01:36;;;;;;;11.70;8.82;;;6.70;99.90;;;;;;5050567;28;20045;-70
2021/10/16 01:04:03;;;;;;;13.23;8.52;;;6.70;99.90;;;;;;5043922;28;20131;-70
2021/10/16 01:06:29;;;;;;;14.50;9.00;;;6.70;99.90;;;;;;5052945;28;20126;-70
2021/10/16 01:08:56;;;;;;;11.85;8.73;;;6.80;99.90;;;;;;5051115;28;20052;-71
2021/10/16 01:11:37;;;;;;;13.65;8.43;;;6.80;99.90;;;;;;5051770;28;20354;-71
2021/10/16 01:14:05;;;;;;;13.98;9.25;;;6.80;99.90;;;;;;5045814;28;20021;-69
2021/10/16 01:16:31;;;;;;;13.98;9.15;;;6.90;99.90;;;;;;5037493;28;20029;-72
2021/10/16 01:18:57;;;;;;;11.98;8.30;;;7.00;99.90;;;;;;5051854;28;20087;-72
2021/10/16 01:21:23;;;;;;;14.48;9.45;;;7.00;99.90;;;;;;5052595;28;20087;-71
2021/10/16 01:23:49;;;;;;;11.68;9.10;;;7.10;99.90;;;;;;5032607;28;20031;-71
2021/10/16 01:26:15;;;;;;;11.88;8.90;;;7.20;99.90;;;;;;5051185;28;20435;-71
2021/10/16 01:28:41;;;;;;;13.05;9.23;;;7.30;99.90;;;;;;5051286;28;20116;-71
2021/10/16 01:31:07;;;;;;;12.85;10.07;;;7.30;99.90;;;;;;5051102;28;20029;-71
2021/10/16 01:33:33;;;;;;;12.05;8.60;;;7.40;99.90;;;;;;5051646;28;20344;-71
2021/10/16 01:36:05;;;;;;;13.88;9.95;;;7.40;99.90;;;;;;5050474;28;20029;-71
2021/10/16 01:38:33;;;;;;;15.48;9.32;;;7.50;99.90;;;;;;5051252;28;20417;-71
2021/10/16 01:41:00;;;;;;;13.00;9.18;;;7.60;99.90;;;;;;5050727;28;20029;-72
2021/10/16 01:43:28;;;;;;;12.60;9.38;;;7.60;99.90;;;;;;5051468;28;20025;-72
2021/10/16 01:45:54;;;;;;;15.02;9.75;;;7.60;99.90;;;;;;5050587;28;20061;-71
2021/10/16 01:48:24;;;;;;;11.05;8.27;;;7.60;99.90;;;;;;5051014;28;20060;-71
2021/10/16 01:50:50;;;;;;;14.32;9.90;;;7.70;99.90;;;;;;5049749;28;20083;-72
2021/10/16 01:53:17;;;;;;;12.75;8.85;;;7.70;99.90;;;;;;5051149;28;20035;-72
2021/10/16 01:55:43;;;;;;;12.20;9.07;;;7.80;99.90;;;;;;5050676;28;20033;-71
2021/10/16 01:58:11;;;;;;;15.07;8.88;;;7.80;99.90;;;;;;5050786;28;20021;-72
2021/10/16 02:00:37;;;;;;;14.60;8.75;;;7.70;99.90;;;;;;5051394;28;20060;-72
2021/10/16 02:03:10;;;;;;;11.00;8.07;;;7.70;99.90;;;;;;5050324;28;20025;-71
2021/10/16 02:05:41;;;;;;;13.50;8.93;;;7.70;99.90;;;;;;5050581;28;20037;-71
2021/10/16 02:08:07;;;;;;;14.32;9.40;;;7.70;99.90;;;;;;5050025;28;20470;-71
2021/10/16 02:10:32;;;;;;;15.88;8.40;;;7.70;99.90;;;;;;5051075;28;20037;-71
2021/10/16 02:12:58;;;;;;;13.13;8.63;;;7.70;99.90;;;;;;5050094;28;20025;-71
2021/10/16 02:15:24;;;;;;;18.42;10.45;;;7.60;99.90;;;;;;5051516;28;20037;-71
2021/10/16 02:17:49;;;;;;;13.85;9.27;;;7.60;99.90;;;;;;5050645;28;20394;-71
2021/10/16 02:20:15;;;;;;;11.15;8.80;;;7.70;99.90;;;;;;5060644;28;20032;-71
2021/10/16 02:22:41;;;;;;;16.23;9.50;;;7.70;99.90;;;;;;5070603;28;20027;-71
2021/10/16 02:25:07;;;;;;;10.40;8.45;;;7.70;99.90;;;;;;5070433;28;20485;-71
2021/10/16 02:27:33;;;;;;;12.80;9.07;;;7.70;99.90;;;;;;5043824;28;20033;-71
2021/10/16 02:29:58;;;;;;;15.73;9.80;;;7.60;99.90;;;;;;5030977;28;20021;-71
2021/10/16 02:32:24;;;;;;;13.32;9.10;;;7.70;99.90;;;;;;5030952;28;20120;-71
2021/10/16 02:34:49;;;;;;;14.25;9.68;;;7.70;99.90;;;;;;5012537;28;20064;-71
2021/10/16 02:37:15;;;;;;;15.70;9.63;;;7.70;99.90;;;;;;5043351;28;20033;-71
2021/10/16 02:39:41;;;;;;;11.85;9.25;;;7.70;99.90;;;;;;5054530;28;20374;-71
2021/10/16 02:42:07;;;;;;;13.85;9.63;;;7.70;99.90;;;;;;5044488;28;20036;-71
2021/10/16 02:44:33;;;;;;;15.48;9.80;;;7.70;99.90;;;;;;5034476;28;20100;-72
2021/10/16 02:46:58;;;;;;;13.60;9.88;;;7.70;99.90;;;;;;5040981;28;20041;-71
2021/10/16 02:49:24;;;;;;;14.32;9.85;;;7.70;99.90;;;;;;5054084;28;20079;-71
2021/10/16 02:51:50;;;;;;;14.02;9.52;;;7.70;99.90;;;;;;5053388;28;20029;-71
2021/10/16 02:54:15;;;;;;;12.00;8.68;;;7.70;99.90;;;;;;5047218;28;20037;-71
2021/10/16 02:56:41;;;;;;;11.40;8.57;;;7.70;99.90;;;;;;5039127;28;20533;-71
2021/10/16 02:59:07;;;;;;;14.88;8.93;;;7.70;99.90;;;;;;5053046;28;20104;-71
2021/10/16 03:01:32;;;;;;;12.73;8.75;;;7.70;99.90;;;;;;5054003;28;20155;-71
2021/10/16 03:03:58;;;;;;;13.90;8.30;;;7.70;99.90;;;;;;5053064;28;20381;-71
2021/10/16 03:06:24;;;;;;;16.77;9.75;;;7.70;99.90;;;;;;5050942;28;20151;-71
2021/10/16 03:08:49;;;;;;;17.90;9.68;;;7.70;99.90;;;;;;5033138;28;20060;-71
2021/10/16 03:11:15;;;;;;;13.43;9.48;;;7.70;99.90;;;;;;5034274;28;20352;-71
2021/10/16 03:13:41;;;;;;;12.80;9.75;;;7.80;99.90;;;;;;5034012;28;20116;-71
2021/10/16 03:16:06;;;;;;;15.57;9.27;;;7.80;99.90;;;;;;5050227;28;20032;-71
2021/10/16 03:18:32;;;;;;;14.60;10.43;;;7.80;99.90;;;;;;5053199;28;20025;-71
2021/10/16 03:20:59;;;;;;;19.13;10.32;;;7.90;99.90;;;;;;5068084;28;20048;-71
2021/10/16 03:23:25;;;;;;;13.70;9.95;;;7.80;99.90;;;;;;5073673;28;20025;-71
2021/10/16 03:25:50;;;;;;;13.43;8.80;;;7.90;99.90;;;;;;5062815;28;20032;-71
2021/10/16 03:28:16;;;;;;;11.23;8.88;;;7.90;99.90;;;;;;5033854;28;20032;-71
2021/10/16 03:30:42;;;;;;;15.82;9.23;;;7.90;99.90;;;;;;5033681;28;20364;-71
2021/10/16 03:33:07;;;;;;;13.85;9.57;;;7.80;99.90;;;;;;5033204;28;20051;-71
2021/10/16 03:35:33;;;;;;;11.65;8.68;;;7.80;99.90;;;;;;5040184;28;20037;-71
2021/10/16 03:37:59;;;;;;;14.20;9.80;;;7.80;99.90;;;;;;5052217;28;20036;-71
2021/10/16 03:40:25;;;;;;;18.38;10.18;;;7.70;99.90;;;;;;5053507;28;20028;-71
2021/10/16 03:42:51;;;;;;;15.82;9.35;;;7.70;99.90;;;;;;5034787;28;20087;-71
2021/10/16 03:45:17;;;;;;;13.57;8.88;;;7.70;99.90;;;;;;5037232;28;20051;-71
2021/10/16 03:47:42;;;;;;;18.83;10.80;;;7.70;99.90;;;;;;5052117;28;20044;-71
2021/10/16 03:50:09;;;;;;;13.85;9.15;;;7.70;99.90;;;;;;5051773;28;20060;-71
2021/10/16 03:52:34;;;;;;;14.23;9.38;;;7.60;99.90;;;;;;5052958;28;20079;-72
2021/10/16 03:55:00;;;;;;;12.18;8.98;;;7.60;99.90;;;;;;5043277;28;20025;-71
2021/10/16 03:57:26;;;;;;;15.73;10.15;;;7.60;99.90;;;;;;5034177;28;20434;-71
2021/10/16 03:59:51;;;;;;;13.15;9.30;;;7.60;99.90;;;;;;5032257;28;20502;-71
2021/10/16 04:02:18;;;;;;;12.43;9.00;;;7.60;99.90;;;;;;5033144;28;20039;-72
2021/10/16 04:04:45;;;;;;;13.18;9.13;;;7.60;99.90;;;;;;5032620;28;20041;-71
2021/10/16 04:07:11;;;;;;;13.25;8.75;;;7.60;99.90;;;;;;5043362;28;20418;-71
2021/10/16 04:09:36;;;;;;;14.43;9.52;;;7.60;99.90;;;;;;5042169;28;20033;-71
2021/10/16 04:12:03;;;;;;;13.80;9.30;;;7.60;99.90;;;;;;5032029;28;20099;-71
2021/10/16 04:14:29;;;;;;;12.43;9.23;;;7.50;99.90;;;;;;5032799;28;20387;-71
2021/10/16 04:16:55;;;;;;;15.27;10.40;;;7.50;99.90;;;;;;5033041;28;20056;-71
2021/10/16 04:19:21;;;;;;;26.05;14.38;;;7.50;99.90;;;;;;5052120;28;20055;-71
2021/10/16 04:21:47;;;;;;;20.50;12.45;;;7.60;99.90;;;;;;5066467;28;20025;-71
2021/10/16 04:24:12;;;;;;;18.75;11.15;;;7.60;99.90;;;;;;5052156;28;20474;-70
2021/10/16 04:26:38;;;;;;;18.92;12.18;;;7.60;99.90;;;;;;5052049;28;20057;-70
2021/10/16 04:29:04;;;;;;;17.83;12.27;;;7.60;99.90;;;;;;5051371;28;20075;-70
2021/10/16 04:31:30;;;;;;;17.63;12.02;;;7.60;99.90;;;;;;5052083;28;20113;-70
2021/10/16 04:33:55;;;;;;;14.55;11.15;;;7.60;99.90;;;;;;5047019;28;20017;-70
2021/10/16 04:36:21;;;;;;;12.85;10.73;;;7.60;99.90;;;;;;5032392;28;20033;-71
2021/10/16 04:38:48;;;;;;;14.57;10.63;;;7.60;99.90;;;;;;5031946;28;20038;-70
2021/10/16 04:41:16;;;;;;;18.73;11.88;;;7.60;99.90;;;;;;5014029;28;20040;-71
2021/10/16 04:43:41;;;;;;;17.80;11.63;;;7.70;99.90;;;;;;5035695;28;20025;-70
2021/10/16 04:46:09;;;;;;;17.98;11.27;;;7.70;99.90;;;;;;5043104;28;20606;-70
2021/10/16 04:48:45;;;;;;;14.48;11.23;;;7.70;99.90;;;;;;5032332;28;20044;-70
2021/10/16 04:51:11;;;;;;;19.00;11.75;;;7.60;99.90;;;;;;5031406;28;20100;-70
2021/10/16 04:53:37;;;;;;;18.88;12.13;;;7.60;99.90;;;;;;5032028;28;20025;-70
2021/10/16 04:56:03;;;;;;;22.70;15.02;;;7.60;99.90;;;;;;5031176;28;20478;-70
2021/10/16 04:58:29;;;;;;;27.02;15.40;;;7.60;99.90;;;;;;5044321;28;20454;-70
2021/10/16 05:00:55;;;;;;;24.70;15.70;;;7.60;99.90;;;;;;5051055;28;20067;-70
2021/10/16 05:03:21;;;;;;;25.08;15.90;;;7.60;99.90;;;;;;5051601;28;20421;-70
2021/10/16 05:05:46;;;;;;;29.08;17.45;;;7.60;99.90;;;;;;5068672;28;20040;-70
2021/10/16 05:08:12;;;;;;;28.83;16.55;;;7.60;99.90;;;;;;5051501;28;20081;-70
2021/10/16 05:10:38;;;;;;;18.10;12.32;;;7.60;99.90;;;;;;5031537;28;20029;-70
2021/10/16 05:13:04;;;;;;;15.77;11.48;;;7.70;99.90;;;;;;5030937;28;20103;-70
2021/10/16 05:15:29;;;;;;;16.88;11.82;;;7.60;99.90;;;;;;5031806;28;20352;-70
2021/10/16 05:17:55;;;;;;;17.00;11.80;;;7.60;99.90;;;;;;5059124;28;20346;-70
2021/10/16 05:20:21;;;;;;;17.00;11.25;;;7.70;99.90;;;;;;5061376;28;20028;-69
2021/10/16 05:22:50;;;;;;;18.30;11.05;;;7.60;99.90;;;;;;5060431;28;20070;-70
2021/10/16 05:25:16;;;;;;;18.42;11.52;;;7.70;99.90;;;;;;5060746;28;20039;-70
2021/10/16 05:27:43;;;;;;;17.45;11.15;;;7.70;99.90;;;;;;5059147;28;20029;-70
2021/10/16 05:30:10;;;;;;;15.07;11.30;;;7.70;99.90;;;;;;5057945;28;20091;-70
2021/10/16 05:32:37;;;;;;;18.48;11.50;;;7.70;99.90;;;;;;5036268;28;20017;-70
2021/10/16 05:35:04;;;;;;;16.45;10.60;;;7.70;99.90;;;;;;5058794;28;20021;-69
2021/10/16 05:37:29;;;;;;;14.48;10.77;;;7.70;99.90;;;;;;5059440;28;20357;-70
2021/10/16 05:39:55;;;;;;;17.55;11.63;;;7.70;99.90;;;;;;5059561;28;20029;-69
2021/10/16 05:42:21;;;;;;;18.08;11.90;;;7.70;99.90;;;;;;5058286;28;20032;-70
2021/10/16 05:44:49;;;;;;;19.65;12.10;;;7.70;99.90;;;;;;5059052;28;20017;-69
2021/10/16 05:47:15;;;;;;;15.45;10.73;;;7.70;99.90;;;;;;5056322;28;20048;-70
2021/10/16 05:49:42;;;;;;;14.00;11.00;;;7.80;99.90;;;;;;5058861;28;20104;-70
2021/10/16 05:52:07;;;;;;;14.77;10.90;;;7.80;99.90;;;;;;5060387;28;20030;-70
2021/10/16 05:54:33;;;;;;;15.85;11.45;;;7.80;99.90;;;;;;5061149;28;20048;-69
2021/10/16 05:56:59;;;;;;;14.57;10.50;;;7.80;99.90;;;;;;5056528;28;20037;-69
2021/10/16 05:59:24;;;;;;;16.52;11.48;;;7.80;99.90;;;;;;5058495;28;20089;-69
2021/10/16 06:01:50;;;;;;;15.95;11.40;;;7.80;99.90;;;;;;5060026;28;20032;-70
2021/10/16 06:04:16;;;;;;;15.30;10.85;;;7.90;99.90;;;;;;5024555;28;20024;-70
2021/10/16 06:06:41;;;;;;;13.05;10.25;;;7.90;99.90;;;;;;5057720;28;20068;-69
2021/10/16 06:09:07;;;;;;;18.52;13.52;;;7.90;99.90;;;;;;5058715;28;20083;-69
2021/10/16 06:11:33;;;;;;;21.48;13.68;;;7.90;99.90;;;;;;5061465;28;20036;-70
2021/10/16 06:13:59;;;;;;;20.05;11.82;;;8.00;99.90;;;;;;5063214;28;20017;-70
2021/10/16 06:16:25;;;;;;;17.90;11.48;;;8.10;99.90;;;;;;5061235;28;20045;-70
2021/10/16 06:18:51;;;;;;;16.88;11.30;;;8.20;99.90;;;;;;5058779;28;20049;-73
2021/10/16 06:21:17;;;;;;;18.45;11.40;;;8.10;99.90;;;;;;5050223;28;20025;-70
2021/10/16 06:23:42;;;;;;;15.02;10.52;;;8.20;99.90;;;;;;5043525;28;20331;-70
2021/10/16 06:26:08;;;;;;;14.93;10.82;;;8.20;99.90;;;;;;5042340;28;20028;-70
2021/10/16 06:28:34;;;;;;;17.60;10.38;;;8.20;99.90;;;;;;5042325;28;20448;-71
2021/10/16 06:31:00;;;;;;;12.57;10.13;;;8.10;99.90;;;;;;5046253;28;20025;-70
2021/10/16 06:33:26;;;;;;;16.88;10.15;;;8.10;99.90;;;;;;5045008;28;20389;-71
2021/10/16 06:35:52;;;;;;;14.63;10.48;;;8.10;99.90;;;;;;5044245;28;20717;-72
2021/10/16 06:38:19;;;;;;;13.00;9.80;;;8.10;99.90;;;;;;5042765;28;20028;-73
2021/10/16 06:40:44;;;;;;;12.98;9.88;;;8.10;99.90;;;;;;5044140;28;20113;-73
2021/10/16 06:43:10;;;;;;;13.88;10.38;;;8.10;99.90;;;;;;5041736;28;21008;-73
2021/10/16 06:45:36;;;;;;;16.73;9.90;;;8.10;99.90;;;;;;5044106;28;20029;-70
2021/10/16 06:48:02;;;;;;;16.27;9.63;;;8.10;99.90;;;;;;5044129;28;20037;-71
2021/10/16 06:50:28;;;;;;;15.77;9.65;;;8.10;99.90;;;;;;5044090;28;20032;-73
2021/10/16 06:52:53;;;;;;;12.65;9.18;;;8.10;99.90;;;;;;5051184;28;20028;-73
2021/10/16 06:55:19;;;;;;;14.43;8.98;;;8.10;99.90;;;;;;5062663;28;20035;-73
2021/10/16 06:57:45;;;;;;;13.10;9.85;;;8.10;99.90;;;;;;5058607;28;20081;-72
2021/10/16 07:00:12;;;;;;;12.23;9.65;;;8.20;99.90;;;;;;5038327;28;20025;-73
2021/10/16 07:02:37;;;;;;;14.35;9.27;;;8.20;99.90;;;;;;5072458;28;20033;-73
2021/10/16 07:05:03;;;;;;;14.25;9.68;;;8.20;99.90;;;;;;5073210;28;20032;-72
2021/10/16 07:07:29;;;;;;;14.45;9.80;;;8.20;99.90;;;;;;5047107;28;20045;-73
2021/10/16 07:09:55;;;;;;;14.60;10.25;;;8.30;99.90;;;;;;5046972;28;20485;-73
2021/10/16 07:12:22;;;;;;;19.90;11.07;;;8.30;99.90;;;;;;5055720;28;20419;-73
2021/10/16 07:14:48;;;;;;;17.67;10.27;;;8.30;99.90;;;;;;5053407;28;20032;-73
2021/10/16 07:17:14;;;;;;;15.50;9.88;;;8.40;99.90;;;;;;5052911;28;20037;-72
2021/10/16 07:19:40;;;;;;;12.30;9.90;;;8.40;99.90;;;;;;5051364;28;20512;-75
2021/10/16 07:22:05;;;;;;;13.77;9.77;;;8.50;99.90;;;;;;5040257;28;20030;-74
2021/10/16 07:24:31;;;;;;;15.73;9.20;;;8.50;99.90;;;;;;5039192;28;20036;-72
2021/10/16 07:26:57;;;;;;;17.95;9.43;;;8.60;99.90;;;;;;5052146;28;20075;-78
2021/10/16 07:29:23;;;;;;;12.77;9.50;;;8.60;99.90;;;;;;5053378;28;20373;-76
2021/10/16 07:31:50;;;;;;;13.40;9.25;;;8.70;99.90;;;;;;5035619;28;20095;-74
2021/10/16 07:34:16;;;;;;;13.80;9.48;;;8.70;99.90;;;;;;5050349;28;20034;-75
2021/10/16 07:36:42;;;;;;;13.75;10.52;;;8.70;99.90;;;;;;5033717;28;20091;-75
2021/10/16 07:39:09;;;;;;;17.33;9.50;;;8.70;99.90;;;;;;5032071;28;20124;-79
2021/10/16 07:41:35;;;;;;;11.73;9.30;;;8.70;99.90;;;;;;5044305;28;20028;-74
2021/10/16 07:44:03;;;;;;;14.10;9.45;;;8.80;99.90;;;;;;5051500;28;20021;-76
2021/10/16 07:46:29;;;;;;;13.35;9.75;;;8.80;99.90;;;;;;5033000;28;20525;-74
2021/10/16 07:48:54;;;;;;;14.57;9.85;;;8.90;99.90;;;;;;5032522;28;20033;-74
2021/10/16 07:51:20;;;;;;;14.82;9.95;;;8.90;99.90;;;;;;5041617;28;20044;-75
2021/10/16 07:53:46;;;;;;;16.35;9.90;;;9.00;99.90;;;;;;5053232;28;20021;-74
2021/10/16 07:56:12;;;;;;;14.20;9.48;;;9.10;99.90;;;;;;5033777;28;20049;-76
2021/10/16 07:58:41;;;;;;;15.15;9.90;;;9.10;99.90;;;;;;5032520;28;20500;-77
2021/10/16 08:01:08;;;;;;;12.40;9.50;;;9.10;99.90;;;;;;5032359;28;20021;-71
2021/10/16 08:03:33;;;;;;;14.05;8.90;;;9.10;99.90;;;;;;5033036;28;20139;-74
2021/10/16 08:06:00;;;;;;;18.17;10.57;;;9.20;99.90;;;;;;5029824;28;20123;-71
2021/10/16 08:08:27;;;;;;;12.45;9.68;;;9.30;99.90;;;;;;5052652;28;20048;-73
2021/10/16 08:11:03;;;;;;;16.67;10.73;;;9.30;99.90;;;;;;5038049;28;20037;-72
2021/10/16 08:13:30;;;;;;;15.25;10.77;;;9.40;99.90;;;;;;5048907;28;20023;-74
2021/10/16 08:15:57;;;;;;;15.13;10.25;;;9.40;99.90;;;;;;5034208;28;20111;-77
2021/10/16 08:18:23;;;;;;;21.38;12.52;;;9.40;99.90;;;;;;5040513;28;20028;-71
2021/10/16 08:20:49;;;;;;;17.33;10.82;;;9.60;99.90;;;;;;5066488;28;20065;-73
2021/10/16 08:23:16;;;;;;;23.42;11.05;;;9.60;99.90;;;;;;5071301;28;20036;-75
2021/10/16 08:25:41;;;;;;;19.27;12.10;;;9.70;99.90;;;;;;5052682;28;20033;-73
2021/10/16 08:28:12;;;;;;;20.15;11.63;;;9.70;99.90;;;;;;5031158;28;20041;-74
2021/10/16 08:30:41;;;;;;;16.30;11.35;;;9.70;99.90;;;;;;5031974;28;20049;-73
2021/10/16 08:33:06;;;;;;;14.93;10.63;;;9.70;99.90;;;;;;5030930;28;20037;-84
2021/10/16 08:35:33;;;;;;;18.83;12.15;;;9.70;99.90;;;;;;5047626;28;20470;-78
2021/10/16 08:37:58;;;;;;;27.77;13.85;;;9.70;99.90;;;;;;5051543;28;20086;-72
2021/10/16 08:40:27;;;;;;;19.80;13.02;;;9.80;99.90;;;;;;5051956;28;20037;-73
2021/10/16 08:42:54;;;;;;;29.58;14.70;;;9.80;99.90;;;;;;5041170;28;20022;-72
2021/10/16 08:45:20;;;;;;;27.20;16.33;;;9.90;99.90;;;;;;5044383;28;20037;-73
2021/10/16 08:47:47;;;;;;;31.42;18.00;;;9.90;99.90;;;;;;5052117;28;20043;-82
2021/10/16 08:50:14;;;;;;;35.55;17.60;;;10.00;99.90;;;;;;5031428;28;20045;-76
2021/10/16 08:52:40;;;;;;;30.52;16.58;;;10.00;99.90;;;;;;5040408;28;20172;-76
2021/10/16 08:55:08;;;;;;;37.72;18.10;;;9.90;99.90;;;;;;5039061;28;20037;-80
2021/10/16 08:57:36;;;;;;;38.55;19.65;;;9.90;99.90;;;;;;5031958;28;20033;-84
2021/10/16 09:00:37;;;;;;;38.30;19.75;;;10.00;99.90;;;;;;5031075;28;20109;-80
2021/10/16 09:03:26;;;;;;;41.80;23.13;;;10.00;99.90;;;;;;5030831;28;20060;-83
2021/10/16 09:06:06;;;;;;;39.00;21.48;;;10.00;99.90;;;;;;5049213;28;20448;-79
2021/10/16 09:08:33;;;;;;;;;;;10.00;99.90;;;;;;5052118;28;20049;-80
2021/10/16 09:11:12;;;;;;;33.08;20.35;;;10.10;99.90;;;;;;5050220;28;20312;-79
2021/10/16 09:13:45;;;;;;;40.25;22.70;;;10.10;99.90;;;;;;5030055;28;20079;-79
2021/10/16 09:16:21;;;;;;;41.15;21.50;;;10.10;99.90;;;;;;5050122;28;20044;-78
2021/10/16 09:18:59;;;;;;;38.30;22.15;;;10.10;99.90;;;;;;5051604;28;20107;-78
2021/10/16 09:21:27;;;;;;;35.85;21.10;;;10.20;99.90;;;;;;5068388;28;20090;-80
2021/10/16 09:24:18;;;;;;;34.50;22.13;;;10.20;99.90;;;;;;5051719;28;20044;-72
2021/10/16 09:26:47;;;;;;;36.72;22.10;;;10.30;99.90;;;;;;5046749;28;20056;-72
2021/10/16 09:29:15;;;;;;;33.25;20.30;;;10.40;99.90;;;;;;5050433;28;20098;-71
2021/10/16 09:31:45;;;;;;;31.50;19.95;;;10.40;99.90;;;;;;5050624;28;20029;-71
2021/10/16 09:34:11;;;;;;;27.77;17.80;;;10.40;99.90;;;;;;5050580;28;20036;-72
2021/10/16 09:36:38;;;;;;;28.73;18.55;;;10.40;99.90;;;;;;5051138;28;20275;-71
2021/10/16 09:39:07;;;;;;;35.20;18.33;;;10.40;99.90;;;;;;5048417;28;20043;-71
2021/10/16 09:41:38;;;;;;;28.92;18.35;;;10.50;99.90;;;;;;5050880;28;20035;-73
2021/10/16 09:44:17;;;;;;;28.80;19.40;;;10.70;99.90;;;;;;5050286;28;20470;-72
2021/10/16 09:47:21;;;;;;;28.52;18.05;;;10.70;99.90;;;;;;5053772;28;20033;-71
2021/10/16 09:49:49;;;;;;;28.75;18.63;;;10.80;99.90;;;;;;5037989;28;20087;-72
2021/10/16 09:52:20;;;;;;;29.88;17.73;;;10.80;99.90;;;;;;5047008;28;20284;-72
2021/10/16 09:54:49;;;;;;;29.25;19.23;;;10.90;99.90;;;;;;5035371;28;20025;-72
2021/10/16 09:57:19;;;;;;;27.10;16.95;;;11.00;99.90;;;;;;5034513;28;20029;-72
2021/10/16 09:59:45;;;;;;;29.50;18.98;;;11.00;99.90;;;;;;5035345;28;20040;-71
2021/10/16 10:02:12;;;;;;;26.67;17.33;;;11.10;99.90;;;;;;5036102;28;20490;-71
2021/10/16 10:04:45;;;;;;;28.88;16.88;;;11.20;99.90;;;;;;5035480;28;20029;-71
2021/10/16 10:07:11;;;;;;;26.77;16.25;;;11.30;99.90;;;;;;5033221;28;20111;-72
2021/10/16 10:09:40;;;;;;;30.80;18.45;;;11.30;99.90;;;;;;5034957;28;20087;-73
2021/10/16 10:12:10;;;;;;;24.90;17.25;;;11.50;99.90;;;;;;5039417;28;20128;-70
2021/10/16 10:14:42;;;;;;;26.77;17.40;;;11.60;99.90;;;;;;5052007;28;20028;-74
2021/10/16 10:17:09;;;;;;;26.55;16.45;;;11.70;99.90;;;;;;5052083;28;20061;-76
2021/10/16 10:19:45;;;;;;;25.10;17.40;;;11.70;99.90;;;;;;5036968;28;20040;-74
2021/10/16 10:22:18;;;;;;;28.10;18.02;;;11.90;99.90;;;;;;5042175;28;20106;-73
2021/10/16 10:24:46;;;;;;;25.17;17.50;;;11.90;99.90;;;;;;5053608;28;20366;-73
2021/10/16 10:27:15;;;;;;;27.80;17.20;;;12.00;99.90;;;;;;5033825;28;20057;-73
2021/10/16 10:29:45;;;;;;;22.65;15.32;;;12.10;99.90;;;;;;5034321;28;20829;-76
2021/10/16 10:32:19;;;;;;;20.83;14.85;;;12.20;99.90;;;;;;5036630;28;20033;-76
2021/10/16 10:34:58;;;;;;;24.77;16.02;;;12.30;99.90;;;;;;5049356;28;20090;-78
2021/10/16 10:37:38;;;;;;;20.58;14.70;;;12.50;99.90;;;;;;5017667;28;20075;-78
2021/10/16 10:40:17;;;;;;;23.33;16.60;;;12.60;99.90;;;;;;5047742;28;20033;-73
2021/10/16 10:43:01;;;;;;;22.38;15.82;;;12.90;99.90;;;;;;5044695;28;20112;-67
2021/10/16 10:45:27;;;;;;;22.27;15.05;;;13.10;99.90;;;;;;5054072;28;20103;-72
2021/10/16 10:48:01;;;;;;;19.45;14.25;;;13.30;99.90;;;;;;5054411;28;20466;-68
2021/10/16 10:50:44;;;;;;;21.35;15.55;;;13.40;99.90;;;;;;5054644;28;20067;-69
2021/10/16 10:53:11;;;;;;;19.60;15.55;;;13.60;99.90;;;;;;5052944;28;20493;-68
2021/10/16 10:56:02;;;;;;;24.67;16.33;;;13.70;99.90;;;;;;5053941;28;20109;-68
2021/10/16 10:58:48;;;;;;;18.25;14.68;;;13.80;99.90;;;;;;5053890;28;20032;-68
2021/10/16 11:01:51;;;;;;;22.35;15.07;;;13.80;99.90;;;;;;5045296;28;20528;-68
2021/10/16 11:04:35;;;;;;;21.27;15.15;;;13.90;99.90;;;;;;5032899;28;20041;-68
2021/10/16 11:07:04;;;;;;;24.27;15.77;;;14.20;99.90;;;;;;5044116;28;20033;-69
2021/10/16 11:09:30;;;;;;;23.33;15.90;;;14.40;99.90;;;;;;5052941;28;20075;-68
2021/10/16 11:11:56;;;;;;;22.35;16.60;;;14.50;99.90;;;;;;5052916;28;20111;-68
2021/10/16 11:14:32;;;;;;;20.73;13.73;;;14.40;99.90;;;;;;5033276;28;20104;-69
2021/10/16 11:17:05;;;;;;;20.35;15.10;;;14.50;99.90;;;;;;5033888;28;20038;-68
2021/10/16 11:19:53;;;;;;;20.27;15.57;;;14.60;99.90;;;;;;5022606;28;20016;-69
2021/10/16 11:22:43;;;;;;;19.55;14.90;;;14.60;99.90;;;;;;5067971;28;20628;-68
2021/10/16 11:25:14;;;;;;;19.10;15.13;;;14.60;99.90;;;;;;5046801;28;20332;-69
2021/10/16 11:27:39;;;;;;;18.63;14.32;;;14.50;99.90;;;;;;5053142;28;20098;-67
2021/10/16 11:30:16;;;;;;;19.70;14.10;;;14.40;99.90;;;;;;5052784;28;20406;-68
2021/10/16 11:32:42;;;;;;;17.42;13.20;;;14.20;99.90;;;;;;5047473;28;20076;-68
2021/10/16 11:35:08;;;;;;;22.88;15.73;;;14.20;99.90;;;;;;5032668;28;20033;-69
2021/10/16 11:37:47;;;;;;;18.33;13.48;;;14.20;99.90;;;;;;5045449;28;20425;-79
2021/10/16 11:40:22;;;;;;;22.05;15.32;;;14.20;99.90;;;;;;5052298;28;20064;-77
2021/10/16 11:42:57;;;;;;;17.00;13.57;;;14.40;99.90;;;;;;5045757;28;20490;-69
2021/10/16 11:45:43;;;;;;;17.15;14.00;;;14.60;99.90;;;;;;5032419;28;20124;-70
2021/10/16 11:48:11;;;;;;;19.60;15.65;;;14.60;99.90;;;;;;5032318;28;20033;-71
2021/10/16 11:50:43;;;;;;;15.93;13.45;;;14.60;99.90;;;;;;5032815;28;20036;-68
2021/10/16 11:53:20;;;;;;;16.45;12.85;;;14.50;99.90;;;;;;5043731;28;20072;-69
2021/10/16 11:55:48;;;;;;;16.52;13.23;;;14.60;99.90;;;;;;5052859;28;20044;-68
2021/10/16 11:58:17;;;;;;;15.93;12.57;;;14.70;99.90;;;;;;5051984;28;20035;-68
2021/10/16 12:00:50;;;;;;;13.63;11.85;;;14.90;99.90;;;;;;5052580;28;20021;-68
2021/10/16 12:03:18;;;;;;;16.75;12.65;;;14.90;99.90;;;;;;5044997;28;20082;-69
2021/10/16 12:05:46;;;;;;;13.98;12.45;;;15.10;99.90;;;;;;5036061;28;20589;-67
2021/10/16 12:08:20;;;;;;;16.00;13.32;;;15.30;99.90;;;;;;5052405;28;20068;-68
2021/10/16 12:10:51;;;;;;;17.65;13.02;;;15.50;99.90;;;;;;5052791;28;20458;-68
2021/10/16 12:13:33;;;;;;;15.13;10.48;;;15.80;99.40;;;;;;5036324;28;20033;-68
2021/10/16 12:16:08;;;;;;;14.90;11.98;;;15.90;99.10;;;;;;5014874;28;20364;-72
2021/10/16 12:18:34;;;;;;;15.77;12.98;;;16.00;98.20;;;;;;5032617;28;20045;-68
2021/10/16 12:21:03;;;;;;;20.13;14.43;;;16.00;97.40;;;;;;5063353;28;20025;-68
2021/10/16 12:23:48;;;;;;;16.95;12.50;;;15.80;98.70;;;;;;5052034;28;20055;-69
2021/10/16 12:26:32;;;;;;;18.83;13.07;;;15.50;98.50;;;;;;5051617;28;20120;-67
2021/10/16 12:29:00;;;;;;;15.63;12.32;;;15.20;99.20;;;;;;5052411;28;20029;-67
2021/10/16 12:31:26;;;;;;;13.57;11.43;;;15.00;99.40;;;;;;5049986;28;20037;-67
2021/10/16 12:33:59;;;;;;;15.63;12.20;;;14.70;99.90;;;;;;5032033;28;20026;-68
2021/10/16 12:36:28;;;;;;;17.85;12.90;;;14.40;99.90;;;;;;5046868;28;20053;-68
2021/10/16 12:38:54;;;;;;;14.63;11.98;;;14.20;99.90;;;;;;5051197;28;20033;-67
2021/10/16 12:41:22;;;;;;;13.52;11.85;;;14.00;99.90;;;;;;5050485;28;20535;-67
2021/10/16 12:43:48;;;;;;;16.52;13.13;;;14.00;99.90;;;;;;5052104;28;20036;-68